This is the latest recevied weather packets stored in our database for station/object KD0RII. If no packets are shown the sender has not sent any weather packets the latest 10 day(s).
| Time | Temp. | Humidity | Pressure | Rain* | Wind** | Luminosity | Snow |
|---|---|---|---|---|---|---|---|
| 1777594845 | 16.11° C | 62% | 1017.8 hPa | 0 mm | - | 38 W/m² | - |
| 1777594542 | 16.67° C | 64% | 1017.9 hPa | 0 mm | - | 44 W/m² | - |
| 1777594238 | 16.67° C | 65% | 1017.6 hPa | 0 mm | - | 53 W/m² | - |
| 1777593934 | 16.67° C | 64% | 1017.7 hPa | 0 mm | - | 67 W/m² | - |
| 1777593630 | 16.67° C | 63% | 1017.7 hPa | 0 mm | - | 71 W/m² | - |
| 1777593327 | 17.22° C | 62% | 1017.6 hPa | 0 mm | - | 59 W/m² | - |
| 1777593021 | 17.78° C | 62% | 1017.7 hPa | 0 mm | - | 69 W/m² | - |
| 1777592715 | 18.33° C | 60% | 1017.8 hPa | 0 mm | - | 71 W/m² | - |
| 1777592411 | 18.33° C | 60% | 1017.8 hPa | 0 mm | - | 87 W/m² | - |
| 1777592106 | 18.33° C | 60% | 1017.8 hPa | 0 mm | - | 131 W/m² | - |
| 1777591804 | 18.89° C | 57% | 1017.7 hPa | 0 mm | - | 93 W/m² | - |
| 1777591500 | 17.78° C | 62% | 1017.7 hPa | 0 mm | - | 231 W/m² | - |
| 1777591196 | 17.22° C | 64% | 1017.9 hPa | 0 mm | - | 142 W/m² | - |
| 1777590896 | 17.22° C | 63% | 1017.7 hPa | 0 mm | - | 109 W/m² | - |
| 1777590593 | 17.22° C | 63% | 1017.8 hPa | 0 mm | - | 124 W/m² | - |
| 1777590289 | 16.67° C | 63% | 1017.9 hPa | 0 mm | - | 169 W/m² | - |
| 1777589987 | 16.67° C | 65% | 1017.6 hPa | 0 mm | - | 175 W/m² | - |
| 1777589683 | 16.67° C | 64% | 1017.8 hPa | 0 mm | - | 114 W/m² | - |
| 1777589380 | 16.67° C | 63% | 1017.8 hPa | 0 mm | - | 169 W/m² | - |
| 1777589077 | 17.22° C | 61% | 1017.7 hPa | 0 mm | - | 74 W/m² | - |
| 1777588773 | 17.78° C | 59% | 1017.6 hPa | 0 mm | - | 115 W/m² | - |
| 1777588469 | 17.78° C | 56% | 1017.7 hPa | 0 mm | - | 149 W/m² | - |
| 1777588164 | 18.33° C | 55% | 1017.5 hPa | 0 mm | - | 151 W/m² | - |
| 1777587860 | 18.33° C | 54% | 1017.4 hPa | 0 mm | - | 144 W/m² | - |
| 1777587556 | 18.89° C | 53% | 1017.4 hPa | 0 mm | - | 115 W/m² | - |
* Rain latest hour (hover to see other rain measurements)
** Current wind speed in m/s (hover to see current wind gust speed)